Time;durP1;ratioP1;P1;durP2;ratioP2;P2;SDS_P1;SDS_P2;PMS_P1;PMS_P2;Temp;Humidity;BMP_temperature;BMP_pressure;BME280_temperature;BME280_humidity;BME280_pressure;Samples;Min_cycle;Max_cycle;Signal;HPM_P1;HPM_P2
2021/01/21 00:01:07;;;;;;;2.05;1.10;;;7.00;68.60;;;;;;5079376;28;20040;-75
2021/01/21 00:03:33;;;;;;;1.50;1.05;;;7.10;67.30;;;;;;5087087;28;20039;-75
2021/01/21 00:06:00;;;;;;;7.45;1.38;;;7.40;66.30;;;;;;5100541;28;20020;-76
2021/01/21 00:08:26;;;;;;;2.40;1.30;;;7.70;64.70;;;;;;5097340;28;20020;-74
2021/01/21 00:10:52;;;;;;;2.05;1.20;;;8.00;63.80;;;;;;5096854;28;20020;-76
2021/01/21 00:13:18;;;;;;;2.65;1.30;;;8.10;63.30;;;;;;5090231;28;20035;-76
2021/01/21 00:15:43;;;;;;;1.80;1.10;;;7.90;64.20;;;;;;5094616;28;20024;-77
2021/01/21 00:18:09;;;;;;;2.05;1.02;;;7.80;64.10;;;;;;5081813;28;20064;-76
2021/01/21 00:20:35;;;;;;;2.63;1.20;;;7.70;65.40;;;;;;5080428;28;20021;-76
2021/01/21 00:23:00;;;;;;;1.98;1.23;;;7.50;64.90;;;;;;5079531;28;20075;-77
2021/01/21 00:25:26;;;;;;;3.13;1.50;;;7.60;64.50;;;;;;5081506;28;20033;-76
2021/01/21 00:27:52;;;;;;;2.75;1.40;;;7.70;63.80;;;;;;5097963;28;20499;-78
2021/01/21 00:30:21;;;;;;;2.65;1.20;;;8.40;61.10;;;;;;5078598;28;20036;-77
2021/01/21 00:32:47;;;;;;;2.60;1.30;;;8.50;61.00;;;;;;5078586;28;20074;-76
2021/01/21 00:35:14;;;;;;;2.05;1.13;;;8.30;61.80;;;;;;5075561;28;20028;-77
2021/01/21 00:37:39;;;;;;;1.90;1.08;;;8.30;61.30;;;;;;5080779;28;20036;-77
2021/01/21 00:40:06;;;;;;;2.05;1.00;;;8.30;61.70;;;;;;5077465;28;20066;-78
2021/01/21 00:42:32;;;;;;;1.33;0.90;;;8.60;60.30;;;;;;5080002;28;20036;-77
2021/01/21 00:44:58;;;;;;;2.25;1.20;;;8.60;60.30;;;;;;5080000;28;20074;-77
2021/01/21 00:47:24;;;;;;;2.42;1.20;;;8.80;59.70;;;;;;5082039;28;20032;-77
2021/01/21 00:49:50;;;;;;;2.22;1.17;;;8.70;60.60;;;;;;5081294;28;20327;-76
2021/01/21 00:52:16;;;;;;;2.42;1.10;;;8.70;60.00;;;;;;5070713;28;20024;-76
2021/01/21 00:54:41;;;;;;;2.55;1.20;;;8.60;61.20;;;;;;5078961;28;20032;-77
2021/01/21 00:57:08;;;;;;;2.42;1.20;;;8.30;61.90;;;;;;5078282;28;21335;-77
2021/01/21 00:59:34;;;;;;;2.40;1.33;;;8.10;62.40;;;;;;5078301;28;20036;-79
2021/01/21 01:01:59;;;;;;;2.13;1.02;;;8.10;62.40;;;;;;5078134;28;20028;-78
2021/01/21 01:04:28;;;;;;;5.97;1.50;;;7.90;63.20;;;;;;5075206;28;20043;-77
2021/01/21 01:06:54;;;;;;;0.98;0.85;;;8.00;63.10;;;;;;5076708;28;20057;-78
2021/01/21 01:09:20;;;;;;;2.03;1.10;;;8.50;61.70;;;;;;5080861;28;20473;-78
2021/01/21 01:11:46;;;;;;;2.13;1.10;;;8.30;62.70;;;;;;5076259;28;20029;-78
2021/01/21 01:14:12;;;;;;;4.25;1.27;;;8.10;63.00;;;;;;5078973;28;20032;-78
2021/01/21 01:16:38;;;;;;;3.35;1.27;;;8.00;63.20;;;;;;5083335;28;20044;-78
2021/01/21 01:19:04;;;;;;;3.50;1.20;;;7.90;64.40;;;;;;5076932;28;20414;-77
2021/01/21 01:21:30;;;;;;;2.45;1.10;;;7.70;64.60;;;;;;5080549;28;20034;-78
2021/01/21 01:23:55;;;;;;;1.77;1.08;;;7.20;68.30;;;;;;5076498;28;20393;-76
2021/01/21 01:26:21;;;;;;;2.55;1.35;;;6.60;72.80;;;;;;5077759;28;20368;-78
2021/01/21 01:28:48;;;;;;;2.03;1.10;;;6.40;70.10;;;;;;5084090;28;20024;-78
2021/01/21 01:31:14;;;;;;;2.58;1.25;;;6.80;67.10;;;;;;5075848;28;20299;-78
2021/01/21 01:33:41;;;;;;;3.72;1.10;;;7.40;65.20;;;;;;5086582;28;20032;-77
2021/01/21 01:36:07;;;;;;;2.10;1.20;;;7.80;63.70;;;;;;5078443;28;20082;-79
2021/01/21 01:38:32;;;;;;;2.17;1.15;;;8.20;62.60;;;;;;5075006;28;20024;-78
2021/01/21 01:40:58;;;;;;;3.60;1.42;;;8.30;62.70;;;;;;5080199;28;20023;-78
2021/01/21 01:43:23;;;;;;;1.20;0.85;;;8.40;62.40;;;;;;5079833;28;20037;-79
2021/01/21 01:45:49;;;;;;;3.10;1.30;;;8.30;62.30;;;;;;5080503;28;20031;-76
2021/01/21 01:48:18;;;;;;;2.05;1.10;;;8.60;61.20;;;;;;5077048;28;20020;-78
2021/01/21 01:50:44;;;;;;;2.10;1.00;;;8.60;61.10;;;;;;5081091;28;20029;-78
2021/01/21 01:53:10;;;;;;;2.13;1.05;;;8.60;61.40;;;;;;5074338;28;20439;-78
2021/01/21 01:55:39;;;;;;;2.30;1.02;;;8.70;61.30;;;;;;5081534;28;20032;-78
2021/01/21 01:58:07;;;;;;;3.22;1.30;;;8.60;62.10;;;;;;5060404;28;20452;-79
2021/01/21 02:00:33;;;;;;;1.80;1.05;;;8.70;61.00;;;;;;5076339;28;20045;-79
2021/01/21 02:02:59;;;;;;;1.48;1.00;;;8.90;60.30;;;;;;5079963;28;20020;-78
2021/01/21 02:05:25;;;;;;;1.85;0.95;;;9.00;59.70;;;;;;5077569;28;20115;-79
2021/01/21 02:07:50;;;;;;;1.40;0.90;;;9.10;59.80;;;;;;5077464;28;20159;-78
2021/01/21 02:10:19;;;;;;;2.92;1.10;;;8.90;60.40;;;;;;5074770;28;20040;-78
2021/01/21 02:13:20;;;;;;;5.25;1.17;;;8.80;61.10;;;;;;5076105;28;20028;-79
2021/01/21 02:16:04;;;;;;;1.65;1.10;;;8.90;59.80;;;;;;5048747;28;20653;-78
2021/01/21 02:18:36;;;;;;;;;;;9.00;60.20;;;;;;5076042;28;20025;-79
2021/01/21 02:21:14;;;;;;;1.75;1.10;;;9.00;60.50;;;;;;5081005;28;19948;-78
2021/01/21 02:23:39;;;;;;;1.42;0.98;;;9.00;59.80;;;;;;5077875;28;20409;-79
2021/01/21 02:26:21;;;;;;;1.55;1.00;;;9.20;59.00;;;;;;5075335;28;20073;-79
2021/01/21 02:29:06;;;;;;;3.17;1.10;;;9.30;58.20;;;;;;5073672;28;20038;-79
2021/01/21 02:31:44;;;;;;;1.40;0.90;;;9.40;58.50;;;;;;5080024;28;20046;-79
2021/01/21 02:34:16;;;;;;;2.65;1.40;;;9.40;58.00;;;;;;5079971;28;20025;-78
2021/01/21 02:36:45;;;;;;;2.60;1.00;;;9.40;58.20;;;;;;5081433;28;20094;-79
2021/01/21 02:39:14;;;;;;;1.73;0.90;;;9.30;58.70;;;;;;5072846;28;20429;-80
2021/01/21 02:41:40;;;;;;;3.60;0.98;;;9.10;60.00;;;;;;5079625;28;20031;-77
2021/01/21 02:44:05;;;;;;;1.60;1.00;;;8.90;60.00;;;;;;5074421;28;20021;-79
2021/01/21 02:46:31;;;;;;;2.60;1.20;;;8.90;60.10;;;;;;5080721;28;20100;-81
2021/01/21 02:49:00;;;;;;;2.22;1.13;;;9.10;59.50;;;;;;5076212;28;20031;-79
2021/01/21 02:51:41;;;;;;;1.55;1.00;;;9.10;59.20;;;;;;5076281;28;20036;-79
2021/01/21 02:54:29;;;;;;;2.13;1.13;;;9.00;59.20;;;;;;5073407;28;20042;-78
2021/01/21 02:57:16;;;;;;;3.60;1.30;;;9.00;59.10;;;;;;5078483;28;20024;-79
2021/01/21 02:59:42;;;;;;;3.17;1.00;;;8.90;60.50;;;;;;5079325;28;20040;-78
2021/01/21 03:02:10;;;;;;;2.60;1.20;;;9.00;59.00;;;;;;5073378;28;20100;-78
2021/01/21 03:04:39;;;;;;;1.42;1.00;;;9.20;59.00;;;;;;5082063;28;20017;-79
2021/01/21 03:07:08;;;;;;;2.97;1.13;;;9.20;59.50;;;;;;5073674;28;20040;-77
2021/01/21 03:09:35;;;;;;;1.73;1.00;;;9.10;59.90;;;;;;5079814;28;20032;-77
2021/01/21 03:12:20;;;;;;;2.05;1.20;;;9.20;59.50;;;;;;5083793;28;20055;-77
2021/01/21 03:14:47;;;;;;;2.13;0.90;;;9.30;59.80;;;;;;5080682;28;20384;-77
2021/01/21 03:17:13;;;;;;;1.60;0.95;;;9.50;59.40;;;;;;5081695;28;20105;-79
2021/01/21 03:19:38;;;;;;;1.17;0.90;;;9.60;58.90;;;;;;5082423;28;20466;-76
2021/01/21 03:22:04;;;;;;;1.63;0.82;;;9.70;58.60;;;;;;5084395;28;20042;-78
2021/01/21 03:24:30;;;;;;;1.77;1.02;;;9.60;58.90;;;;;;5079451;28;20027;-78
2021/01/21 03:26:56;;;;;;;5.15;1.00;;;9.50;59.20;;;;;;5073885;28;20020;-78
2021/01/21 03:29:21;;;;;;;1.67;1.00;;;9.50;59.30;;;;;;5084297;28;20032;-77
2021/01/21 03:31:47;;;;;;;1.75;1.00;;;9.50;59.30;;;;;;5075857;28;20029;-77
2021/01/21 03:34:16;;;;;;;2.05;0.98;;;9.50;59.30;;;;;;5079529;28;20050;-78
2021/01/21 03:36:41;;;;;;;4.13;1.50;;;9.60;58.90;;;;;;5073772;28;20035;-76
2021/01/21 03:39:07;;;;;;;1.15;1.00;;;9.60;59.30;;;;;;5074130;28;20021;-76
2021/01/21 03:41:33;;;;;;;1.83;0.93;;;9.50;59.50;;;;;;5074760;28;20058;-78
2021/01/21 03:43:58;;;;;;;4.10;1.08;;;9.40;60.10;;;;;;5076768;28;20066;-77
2021/01/21 03:46:24;;;;;;;1.35;0.90;;;9.30;60.20;;;;;;5081517;28;20028;-76
2021/01/21 03:48:49;;;;;;;2.83;1.00;;;9.30;60.20;;;;;;5079128;28;20487;-77
2021/01/21 03:51:15;;;;;;;2.50;1.00;;;9.30;60.40;;;;;;5074492;28;20032;-77
2021/01/21 03:53:41;;;;;;;1.85;1.08;;;9.20;61.10;;;;;;5075980;28;20107;-77
2021/01/21 03:56:06;;;;;;;1.42;0.90;;;9.10;61.60;;;;;;5074919;28;20034;-79
2021/01/21 03:58:32;;;;;;;2.22;1.13;;;9.10;61.10;;;;;;5076186;28;20352;-77
2021/01/21 04:00:57;;;;;;;2.40;1.10;;;9.40;60.90;;;;;;5074043;28;20056;-77
2021/01/21 04:03:23;;;;;;;1.92;0.90;;;9.60;60.30;;;;;;5083999;28;20144;-77
2021/01/21 04:05:49;;;;;;;2.45;0.90;;;9.70;59.70;;;;;;5088039;28;20055;-77
2021/01/21 04:08:14;;;;;;;1.70;0.90;;;9.50;60.50;;;;;;5072283;28;20119;-77
2021/01/21 04:10:40;;;;;;;1.42;1.00;;;9.50;60.30;;;;;;5078595;28;20056;-77
2021/01/21 04:13:06;;;;;;;2.20;0.95;;;9.60;60.10;;;;;;5081999;28;20036;-77
2021/01/21 04:15:31;;;;;;;1.33;0.80;;;9.70;60.60;;;;;;5080314;28;20356;-78
2021/01/21 04:17:57;;;;;;;1.20;0.80;;;9.70;60.00;;;;;;5080958;28;20028;-78
2021/01/21 04:20:22;;;;;;;1.73;0.90;;;9.70;60.50;;;;;;5091550;28;20025;-78
2021/01/21 04:22:48;;;;;;;1.33;0.90;;;9.70;60.10;;;;;;5088199;28;20032;-78
2021/01/21 04:25:14;;;;;;;1.10;0.80;;;9.70;60.00;;;;;;5091575;28;20020;-77
2021/01/21 04:27:39;;;;;;;6.00;2.50;;;9.70;59.70;;;;;;5077950;28;20107;-78
2021/01/21 04:30:06;;;;;;;6.38;3.58;;;9.80;59.60;;;;;;5076881;28;20344;-77
2021/01/21 04:32:31;;;;;;;2.13;1.10;;;9.70;59.80;;;;;;5076938;28;20066;-77
2021/01/21 04:34:57;;;;;;;5.00;2.30;;;9.80;59.00;;;;;;5090869;28;20036;-78
2021/01/21 04:37:22;;;;;;;2.20;1.13;;;9.80;59.80;;;;;;5096135;28;20024;-77
2021/01/21 04:39:48;;;;;;;2.10;0.80;;;9.70;60.10;;;;;;5084849;28;20050;-78
2021/01/21 04:42:14;;;;;;;0.95;0.70;;;9.60;60.30;;;;;;5087727;28;20028;-77
2021/01/21 04:44:39;;;;;;;1.48;1.00;;;9.60;59.40;;;;;;5079222;28;20024;-75
2021/01/21 04:47:05;;;;;;;3.85;1.50;;;9.80;59.20;;;;;;5082972;28;20064;-77
2021/01/21 04:49:33;;;;;;;3.70;1.65;;;9.70;60.00;;;;;;5077726;28;20063;-77
2021/01/21 04:52:01;;;;;;;0.95;0.85;;;9.50;60.20;;;;;;5078564;28;20039;-76
2021/01/21 04:54:32;;;;;;;1.05;0.80;;;9.50;60.00;;;;;;5076711;28;20108;-76
2021/01/21 04:57:03;;;;;;;0.90;0.80;;;9.40;60.30;;;;;;5084069;28;20059;-78
2021/01/21 04:59:35;;;;;;;1.30;0.90;;;9.50;59.50;;;;;;5081807;28;20056;-75
2021/01/21 05:02:05;;;;;;;2.20;0.90;;;9.40;60.40;;;;;;5084499;28;20025;-77
2021/01/21 05:04:31;;;;;;;3.03;1.02;;;9.30;60.50;;;;;;5075632;28;20024;-77
2021/01/21 05:06:58;;;;;;;1.65;0.90;;;9.30;60.00;;;;;;5075273;28;20017;-76
2021/01/21 05:09:23;;;;;;;1.45;0.93;;;9.30;60.50;;;;;;5074485;28;20041;-78
2021/01/21 05:11:49;;;;;;;1.27;0.88;;;9.20;61.30;;;;;;5089050;28;20106;-77
2021/01/21 05:14:18;;;;;;;1.80;0.90;;;9.10;61.00;;;;;;5086296;28;20056;-76
2021/01/21 05:16:44;;;;;;;1.30;0.80;;;9.20;60.80;;;;;;5091375;28;20024;-75
2021/01/21 05:19:14;;;;;;;1.60;0.90;;;9.10;61.20;;;;;;5076839;28;20017;-76
2021/01/21 05:21:40;;;;;;;1.25;0.90;;;9.20;60.10;;;;;;5079908;28;20075;-76
2021/01/21 05:24:11;;;;;;;1.25;0.80;;;9.30;59.80;;;;;;5077495;28;20090;-77
2021/01/21 05:26:42;;;;;;;1.90;0.90;;;9.30;59.80;;;;;;5092688;28;20367;-76
2021/01/21 05:29:10;;;;;;;1.23;0.90;;;9.50;59.30;;;;;;5090494;28;20028;-75
2021/01/21 05:31:36;;;;;;;1.60;0.90;;;9.60;58.60;;;;;;5074881;28;20039;-76
2021/01/21 05:34:08;;;;;;;1.17;0.80;;;9.60;58.90;;;;;;5074023;28;20032;-76
2021/01/21 05:36:42;;;;;;;0.95;0.85;;;9.60;59.10;;;;;;5076471;28;20029;-76
2021/01/21 05:39:08;;;;;;;0.80;0.80;;;9.70;58.60;;;;;;5084020;28;20024;-76
2021/01/21 05:41:35;;;;;;;1.15;0.80;;;9.70;58.60;;;;;;5088440;28;20316;-75
2021/01/21 05:44:02;;;;;;;1.27;0.85;;;9.60;59.20;;;;;;5085961;28;20055;-75
2021/01/21 05:46:28;;;;;;;2.25;0.90;;;9.50;59.30;;;;;;5078194;28;20418;-75
2021/01/21 05:48:54;;;;;;;2.03;0.90;;;9.40;60.00;;;;;;5075704;28;20124;-75
2021/01/21 05:51:23;;;;;;;1.73;0.95;;;9.20;60.10;;;;;;5078568;28;20107;-76
2021/01/21 05:53:48;;;;;;;1.83;0.98;;;9.10;60.90;;;;;;5070047;28;20418;-76
2021/01/21 05:56:18;;;;;;;1.23;0.80;;;9.10;60.90;;;;;;5077001;28;20028;-75
2021/01/21 05:58:43;;;;;;;1.35;0.98;;;9.00;60.90;;;;;;5074749;28;20577;-77
2021/01/21 06:01:09;;;;;;;2.88;1.10;;;9.00;60.70;;;;;;5074591;28;20041;-76
2021/01/21 06:03:35;;;;;;;2.13;1.10;;;8.90;61.80;;;;;;5076438;28;20021;-76
2021/01/21 06:06:08;;;;;;;1.45;0.90;;;8.90;61.50;;;;;;5090304;28;20029;-75
2021/01/21 06:08:40;;;;;;;2.33;1.20;;;8.80;61.70;;;;;;5090682;28;20104;-75
2021/01/21 06:11:11;;;;;;;4.00;1.27;;;8.60;62.10;;;;;;5065362;28;20441;-76
2021/01/21 06:13:44;;;;;;;2.03;1.08;;;8.60;62.10;;;;;;5077608;28;20400;-76
2021/01/21 06:16:11;;;;;;;3.10;1.30;;;8.80;61.40;;;;;;5083327;28;20129;-77
2021/01/21 06:18:37;;;;;;;2.20;0.98;;;8.80;61.00;;;;;;5061892;28;20040;-76
2021/01/21 06:21:03;;;;;;;4.88;1.20;;;8.80;60.70;;;;;;5074509;28;20111;-74
2021/01/21 06:23:34;;;;;;;2.13;1.20;;;8.80;61.40;;;;;;5090404;28;20108;-76
2021/01/21 06:26:00;;;;;;;2.90;1.30;;;8.80;60.70;;;;;;5077567;28;20016;-76
2021/01/21 06:28:31;;;;;;;1.98;1.10;;;9.00;60.10;;;;;;5091299;28;20374;-74
2021/01/21 06:30:58;;;;;;;3.60;1.20;;;9.10;60.10;;;;;;5083904;28;20033;-76
2021/01/21 06:33:29;;;;;;;2.60;1.23;;;9.10;60.00;;;;;;5078477;28;20032;-74
2021/01/21 06:36:19;;;;;;;3.08;1.20;;;9.10;60.60;;;;;;5075054;28;20078;-76
2021/01/21 06:38:48;;;;;;;2.13;1.30;;;9.10;60.80;;;;;;5071714;28;20032;-74
2021/01/21 06:41:19;;;;;;;2.88;1.20;;;9.00;61.70;;;;;;5073449;28;20031;-74
2021/01/21 06:43:46;;;;;;;2.67;1.27;;;9.00;61.60;;;;;;5072292;28;20032;-74
2021/01/21 06:46:15;;;;;;;2.72;1.20;;;9.00;63.20;;;;;;5075814;28;20035;-73
2021/01/21 06:48:45;;;;;;;2.67;1.30;;;9.00;64.80;;;;;;5075001;28;20024;-74
2021/01/21 06:51:12;;;;;;;1.38;0.90;;;9.10;66.60;;;;;;5072294;28;20020;-76
2021/01/21 06:53:46;;;;;;;1.45;0.93;;;9.20;68.20;;;;;;5090159;28;20391;-74
2021/01/21 06:56:12;;;;;;;1.13;0.85;;;9.20;68.90;;;;;;5083855;28;20036;-74
2021/01/21 06:58:53;;;;;;;2.55;1.20;;;9.20;69.00;;;;;;5081636;28;20396;-76
2021/01/21 07:01:30;;;;;;;1.52;0.90;;;9.10;69.70;;;;;;5073333;28;20047;-75
2021/01/21 07:04:08;;;;;;;2.65;1.00;;;9.00;69.60;;;;;;5072858;28;20107;-75
2021/01/21 07:06:52;;;;;;;2.97;1.30;;;8.90;70.50;;;;;;5072688;28;20138;-75
2021/01/21 07:09:26;;;;;;;1.98;1.10;;;8.80;71.50;;;;;;5071522;28;20114;-75
2021/01/21 07:12:00;;;;;;;1.95;1.10;;;8.80;71.80;;;;;;5077000;28;20032;-74
2021/01/21 07:14:29;;;;;;;2.15;0.98;;;8.60;72.00;;;;;;5074993;28;20123;-76
2021/01/21 07:17:01;;;;;;;3.47;1.10;;;8.60;72.00;;;;;;5076321;28;20107;-75
2021/01/21 07:19:37;;;;;;;2.63;1.20;;;8.40;72.30;;;;;;5076007;28;20036;-74
2021/01/21 07:22:20;;;;;;;1.83;1.02;;;8.60;71.80;;;;;;5078336;28;20028;-74
2021/01/21 07:25:07;;;;;;;2.22;1.02;;;8.60;72.00;;;;;;5076137;28;20036;-75
2021/01/21 07:27:34;;;;;;;1.80;1.10;;;8.40;72.80;;;;;;5075751;28;20017;-75
2021/01/21 07:30:18;;;;;;;3.63;1.30;;;8.30;73.30;;;;;;5080290;28;20020;-74
2021/01/21 07:32:45;;;;;;;1.23;0.90;;;8.40;73.20;;;;;;5070797;28;20429;-74
2021/01/21 07:35:38;;;;;;;3.28;1.00;;;8.60;73.60;;;;;;5077004;28;20034;-75
2021/01/21 07:38:04;;;;;;;1.95;0.98;;;8.90;73.20;;;;;;5081909;28;20066;-74
2021/01/21 07:40:47;;;;;;;1.08;0.85;;;9.00;73.00;;;;;;5080473;28;20036;-74
2021/01/21 07:43:13;;;;;;;1.57;0.90;;;9.00;73.10;;;;;;5075680;28;20046;-77
2021/01/21 07:45:44;;;;;;;1.30;0.85;;;9.20;72.80;;;;;;5084341;28;20016;-75
2021/01/21 07:48:27;;;;;;;1.77;0.90;;;9.20;72.90;;;;;;5087247;28;20055;-75
2021/01/21 07:50:53;;;;;;;2.05;0.90;;;9.30;73.10;;;;;;5091275;28;20058;-75
2021/01/21 07:53:21;;;;;;;1.33;0.90;;;9.30;72.90;;;;;;5087115;28;20017;-76
2021/01/21 07:55:50;;;;;;;1.90;1.00;;;9.30;73.10;;;;;;5073824;28;20094;-74
2021/01/21 07:58:21;;;;;;;1.33;0.80;;;9.40;72.70;;;;;;5074680;28;20025;-74
2021/01/21 08:00:52;;;;;;;1.90;0.90;;;9.30;73.00;;;;;;5069693;28;20154;-75
2021/01/21 08:03:32;;;;;;;1.45;0.95;;;9.30;72.70;;;;;;5074480;28;20047;-72
2021/01/21 08:06:05;;;;;;;1.90;0.95;;;9.40;72.60;;;;;;5091290;28;20061;-76
2021/01/21 08:08:31;;;;;;;2.13;1.15;;;9.50;72.10;;;;;;5081316;28;20425;-75
2021/01/21 08:11:08;;;;;;;1.38;0.80;;;9.40;72.50;;;;;;5089348;28;20024;-75
2021/01/21 08:13:34;;;;;;;1.85;0.95;;;9.50;72.90;;;;;;5078184;28;20032;-75
2021/01/21 08:16:01;;;;;;;1.63;0.85;;;9.50;72.40;;;;;;5089756;28;20028;-74
2021/01/21 08:18:27;;;;;;;1.98;0.90;;;9.50;72.80;;;;;;5091153;28;20028;-74
2021/01/21 08:20:52;;;;;;;1.10;0.80;;;9.50;73.00;;;;;;5080366;28;20028;-73
2021/01/21 08:23:18;;;;;;;4.95;0.90;;;9.70;73.00;;;;;;5090568;28;20013;-72
2021/01/21 08:25:45;;;;;;;1.70;0.90;;;9.70;72.80;;;;;;5087834;28;20047;-73
2021/01/21 08:28:20;;;;;;;1.48;0.80;;;9.90;72.90;;;;;;5083698;28;20041;-72
2021/01/21 08:30:49;;;;;;;0.85;0.70;;;10.10;72.20;;;;;;5081115;28;20020;-73
2021/01/21 08:33:24;;;;;;;1.77;0.93;;;10.40;72.40;;;;;;5081904;28;20279;-73
2021/01/21 08:36:03;;;;;;;2.25;1.00;;;10.40;72.60;;;;;;5077467;28;20067;-73
2021/01/21 08:38:35;;;;;;;1.15;0.80;;;10.50;72.40;;;;;;5083723;28;20024;-72
2021/01/21 08:41:04;;;;;;;1.58;0.80;;;10.80;72.20;;;;;;5070196;28;20134;-72
2021/01/21 08:43:30;;;;;;;1.13;0.80;;;11.20;71.50;;;;;;5077689;28;20025;-73
2021/01/21 08:45:57;;;;;;;1.05;0.70;;;11.40;71.10;;;;;;5083994;28;20032;-72
2021/01/21 08:48:29;;;;;;;1.60;0.80;;;11.20;71.50;;;;;;5078923;28;20086;-72
2021/01/21 08:50:56;;;;;;;0.93;0.73;;;11.00;72.20;;;;;;5096043;28;20387;-72
2021/01/21 08:53:23;;;;;;;1.02;0.80;;;10.70;73.20;;;;;;5082431;28;20028;-71
2021/01/21 08:55:53;;;;;;;0.73;0.70;;;10.70;73.50;;;;;;5076422;28;20566;-72
2021/01/21 08:58:30;;;;;;;1.70;0.88;;;11.00;72.80;;;;;;5086451;28;20085;-72
2021/01/21 09:01:12;;;;;;;1.50;0.80;;;11.20;72.40;;;;;;5086341;28;20059;-71
2021/01/21 09:03:47;;;;;;;0.70;0.60;;;11.50;72.20;;;;;;5076484;28;20021;-71
2021/01/21 09:06:15;;;;;;;2.25;0.80;;;12.20;70.10;;;;;;5075869;28;20108;-72
2021/01/21 09:08:58;;;;;;;0.77;0.60;;;12.20;69.70;;;;;;5096065;28;20344;-72
2021/01/21 09:11:29;;;;;;;1.13;0.70;;;12.00;70.50;;;;;;5071176;28;20449;-72
2021/01/21 09:13:56;;;;;;;0.98;0.70;;;11.70;70.80;;;;;;5085612;28;20181;-72
2021/01/21 09:16:42;;;;;;;3.10;0.80;;;11.60;71.00;;;;;;5077136;28;20028;-72
2021/01/21 09:19:09;;;;;;;1.48;0.80;;;11.10;72.30;;;;;;5076972;28;20158;-72
2021/01/21 09:21:35;;;;;;;1.67;0.75;;;10.70;73.70;;;;;;5077084;28;20028;-71
2021/01/21 09:24:10;;;;;;;1.15;0.70;;;11.40;73.00;;;;;;5075676;28;20404;-71
2021/01/21 09:26:37;;;;;;;1.45;0.93;;;12.10;70.40;;;;;;5077214;28;20024;-71
2021/01/21 09:29:03;;;;;;;1.15;0.70;;;12.60;69.70;;;;;;5086393;28;20032;-71
2021/01/21 09:31:30;;;;;;;1.33;0.60;;;12.90;68.40;;;;;;5096038;28;20042;-71
2021/01/21 09:33:56;;;;;;;0.60;0.60;;;12.60;69.00;;;;;;5083358;28;20029;-70
2021/01/21 09:36:29;;;;;;;1.00;0.60;;;12.60;69.70;;;;;;5071232;28;20024;-70
2021/01/21 09:38:56;;;;;;;0.82;0.63;;;12.60;69.20;;;;;;5076160;28;20028;-69
2021/01/21 09:41:23;;;;;;;0.65;0.60;;;12.30;69.50;;;;;;5083938;28;20028;-70
2021/01/21 09:43:49;;;;;;;1.05;0.60;;;12.50;69.30;;;;;;5083806;28;20034;-69
2021/01/21 09:46:15;;;;;;;1.35;0.70;;;12.60;69.00;;;;;;5093994;28;20318;-72
2021/01/21 09:48:41;;;;;;;1.83;0.70;;;12.60;69.00;;;;;;5082538;28;20036;-72
2021/01/21 09:51:06;;;;;;;1.33;0.60;;;12.80;68.60;;;;;;5094873;28;20046;-71
2021/01/21 09:53:32;;;;;;;1.15;0.70;;;13.20;68.20;;;;;;5086170;28;20360;-73
2021/01/21 09:55:58;;;;;;;1.77;0.70;;;12.80;68.30;;;;;;5093706;28;20032;-72
2021/01/21 09:58:24;;;;;;;0.68;0.60;;;12.00;69.80;;;;;;5095905;28;20106;-72
2021/01/21 10:00:50;;;;;;;0.98;0.70;;;11.60;71.10;;;;;;5089243;28;20045;-72
2021/01/21 10:03:17;;;;;;;1.00;0.70;;;11.50;71.60;;;;;;5094570;28;20035;-72
2021/01/21 10:05:43;;;;;;;1.17;0.80;;;11.40;71.80;;;;;;5095770;28;20016;-71
2021/01/21 10:08:09;;;;;;;1.00;0.77;;;11.40;72.10;;;;;;5083006;28;20027;-72
2021/01/21 10:10:35;;;;;;;0.82;0.70;;;11.40;72.30;;;;;;5095947;28;20482;-72
2021/01/21 10:13:00;;;;;;;1.30;0.90;;;11.60;71.80;;;;;;5077428;28;20024;-73
2021/01/21 10:15:26;;;;;;;1.33;0.80;;;11.50;71.80;;;;;;5076549;28;20036;-72
2021/01/21 10:17:52;;;;;;;1.00;0.70;;;11.60;71.80;;;;;;5072136;28;20032;-72
2021/01/21 10:20:17;;;;;;;0.63;0.60;;;11.60;71.50;;;;;;5082713;28;20107;-73
2021/01/21 10:22:43;;;;;;;2.67;0.80;;;11.60;71.30;;;;;;5074863;28;20036;-72
2021/01/21 10:25:09;;;;;;;1.90;0.93;;;11.50;71.50;;;;;;5083575;28;20652;-72
2021/01/21 10:27:35;;;;;;;1.08;0.70;;;11.80;71.60;;;;;;5073127;28;20028;-68
2021/01/21 10:30:01;;;;;;;0.75;0.60;;;12.20;70.70;;;;;;5073923;28;20440;-69
2021/01/21 10:32:27;;;;;;;1.08;0.60;;;12.10;70.50;;;;;;5075670;28;20035;-68
2021/01/21 10:34:53;;;;;;;0.98;0.70;;;12.70;69.70;;;;;;5073897;28;20376;-68
2021/01/21 10:37:18;;;;;;;0.68;0.60;;;13.50;67.70;;;;;;5075075;28;20017;-67
2021/01/21 10:39:44;;;;;;;1.23;0.63;;;13.70;67.10;;;;;;5073145;28;20417;-68
2021/01/21 10:42:10;;;;;;;1.13;0.70;;;13.40;66.80;;;;;;5084560;28;20368;-68
2021/01/21 10:44:35;;;;;;;1.88;0.80;;;12.90;68.60;;;;;;5076746;28;20029;-68
2021/01/21 10:47:01;;;;;;;0.73;0.52;;;13.00;68.40;;;;;;5077966;28;20017;-68
2021/01/21 10:49:27;;;;;;;0.85;0.60;;;13.30;67.50;;;;;;5075194;28;20028;-68
2021/01/21 10:51:56;;;;;;;0.98;0.70;;;13.30;67.80;;;;;;5082894;28;20039;-67
2021/01/21 10:54:22;;;;;;;0.80;0.60;;;14.00;67.00;;;;;;5074881;28;20036;-69
2021/01/21 10:56:55;;;;;;;1.55;0.82;;;14.90;65.30;;;;;;5077450;28;20053;-67
2021/01/21 10:59:21;;;;;;;0.70;0.60;;;15.00;64.40;;;;;;5083705;28;20044;-68
2021/01/21 11:01:47;;;;;;;0.85;0.57;;;14.10;65.00;;;;;;5085975;28;20020;-68
2021/01/21 11:04:13;;;;;;;0.88;0.60;;;14.00;66.20;;;;;;5075674;28;20105;-68
2021/01/21 11:06:39;;;;;;;0.65;0.52;;;13.90;67.00;;;;;;5084026;28;20031;-68
2021/01/21 11:09:05;;;;;;;1.02;0.60;;;14.00;66.40;;;;;;5073828;28;20036;-67
2021/01/21 11:11:30;;;;;;;1.35;0.88;;;13.60;67.30;;;;;;5073899;28;20350;-67
2021/01/21 11:13:56;;;;;;;1.17;0.70;;;13.50;67.40;;;;;;5080008;28;20039;-67
2021/01/21 11:16:22;;;;;;;0.98;0.70;;;13.00;68.50;;;;;;5075203;28;20023;-67
2021/01/21 11:18:48;;;;;;;0.85;0.60;;;12.60;69.80;;;;;;5078636;28;20119;-66
2021/01/21 11:21:15;;;;;;;1.25;0.70;;;13.10;69.00;;;;;;5069174;28;20079;-67
2021/01/21 11:23:40;;;;;;;0.90;0.50;;;13.40;68.00;;;;;;5071673;28;20019;-67
2021/01/21 11:26:06;;;;;;;1.10;0.80;;;13.40;67.80;;;;;;5073788;28;20099;-67
2021/01/21 11:28:32;;;;;;;1.08;0.77;;;12.40;69.70;;;;;;5083264;28;20021;-66
2021/01/21 11:30:57;;;;;;;1.15;0.70;;;11.90;71.40;;;;;;5074807;28;20021;-67
2021/01/21 11:33:23;;;;;;;2.20;0.90;;;12.10;71.80;;;;;;5089035;28;20119;-66
2021/01/21 11:35:50;;;;;;;0.77;0.65;;;12.20;71.40;;;;;;5077430;28;20337;-67
2021/01/21 11:38:16;;;;;;;0.70;0.70;;;12.30;71.10;;;;;;5078493;28;20329;-66
2021/01/21 11:40:42;;;;;;;0.85;0.70;;;11.90;72.00;;;;;;5073416;28;20090;-67
2021/01/21 11:43:09;;;;;;;1.50;0.80;;;11.80;72.50;;;;;;5081491;28;20024;-67
2021/01/21 11:45:35;;;;;;;0.60;0.60;;;11.80;72.70;;;;;;5069131;28;20036;-68
2021/01/21 11:48:01;;;;;;;1.30;0.80;;;11.80;72.90;;;;;;5065666;28;20036;-67
2021/01/21 11:50:27;;;;;;;0.93;0.70;;;11.70;72.80;;;;;;5070263;28;20036;-68
2021/01/21 11:52:52;;;;;;;0.95;0.70;;;11.80;73.10;;;;;;5069912;28;20161;-68
2021/01/21 11:55:18;;;;;;;1.05;0.70;;;11.80;72.70;;;;;;5061230;28;20040;-67
2021/01/21 11:57:44;;;;;;;1.40;0.88;;;11.80;72.70;;;;;;5060159;28;20102;-67
2021/01/21 12:00:14;;;;;;;1.15;0.75;;;11.90;72.90;;;;;;5070770;28;20166;-67
2021/01/21 12:02:41;;;;;;;3.20;0.80;;;11.80;72.60;;;;;;5069948;28;20032;-67
2021/01/21 12:05:09;;;;;;;0.93;0.70;;;11.90;72.70;;;;;;5070429;28;20033;-68
2021/01/21 12:07:36;;;;;;;1.67;0.90;;;11.90;72.80;;;;;;5070225;28;20029;-68
2021/01/21 12:10:03;;;;;;;1.92;0.90;;;11.80;73.10;;;;;;5068658;28;20130;-69
2021/01/21 12:12:29;;;;;;;1.05;0.80;;;11.90;72.90;;;;;;5068991;28;20025;-68
2021/01/21 12:14:55;;;;;;;1.45;0.73;;;11.90;73.00;;;;;;5069927;28;20036;-67
2021/01/21 12:17:21;;;;;;;1.05;0.70;;;12.00;72.80;;;;;;5070894;28;20020;-70
2021/01/21 12:19:46;;;;;;;0.98;0.63;;;11.90;72.80;;;;;;5070361;28;20028;-70
2021/01/21 12:22:13;;;;;;;1.80;0.88;;;11.80;73.10;;;;;;5070529;28;20024;-70
2021/01/21 12:24:39;;;;;;;1.70;0.93;;;11.80;73.10;;;;;;5069695;28;20025;-70
2021/01/21 12:27:08;;;;;;;1.45;0.80;;;11.80;73.20;;;;;;5071189;28;20183;-70
2021/01/21 12:29:37;;;;;;;1.10;0.90;;;11.70;73.10;;;;;;5071544;28;20036;-68
2021/01/21 12:32:03;;;;;;;1.65;0.90;;;11.60;73.80;;;;;;5074512;28;20358;-68
2021/01/21 12:34:32;;;;;;;1.60;0.98;;;11.80;73.70;;;;;;5073589;28;20048;-69
2021/01/21 12:36:57;;;;;;;0.70;0.70;;;11.80;73.70;;;;;;5073846;28;20111;-69
2021/01/21 12:39:23;;;;;;;0.70;0.70;;;11.80;74.00;;;;;;5072098;28;20536;-71
2021/01/21 12:41:49;;;;;;;0.68;0.68;;;11.90;74.00;;;;;;5072251;28;20059;-70
2021/01/21 12:44:15;;;;;;;0.77;0.65;;;11.90;73.90;;;;;;5075840;28;20025;-71
2021/01/21 12:46:41;;;;;;;0.85;0.70;;;12.00;73.90;;;;;;5081404;28;20028;-70
2021/01/21 12:49:07;;;;;;;1.05;0.80;;;11.90;73.50;;;;;;5079476;28;20043;-70
2021/01/21 12:51:35;;;;;;;1.05;0.77;;;11.60;74.10;;;;;;5078397;28;20032;-71
2021/01/21 12:54:02;;;;;;;1.52;0.90;;;11.60;74.90;;;;;;5080068;28;20071;-70
2021/01/21 12:56:30;;;;;;;0.90;0.77;;;11.70;74.70;;;;;;5074063;28;20032;-70
2021/01/21 12:58:56;;;;;;;1.00;0.70;;;11.50;75.00;;;;;;5073977;28;20059;-71